createdAt,value
2023-08-16T00:00:19.877Z,3.10
2023-08-16T00:02:21.607Z,2.63
2023-08-16T00:04:23.433Z,2.63
2023-08-16T00:06:25.285Z,2.72
2023-08-16T00:08:27.041Z,2.58
2023-08-16T00:10:28.697Z,2.30
2023-08-16T00:12:30.477Z,2.78
2023-08-16T00:14:32.372Z,2.25
2023-08-16T00:16:34.162Z,2.70
2023-08-16T00:18:35.993Z,2.00
2023-08-16T00:20:37.691Z,2.60
2023-08-16T00:22:39.552Z,2.63
2023-08-16T00:24:41.320Z,2.80
2023-08-16T00:26:43.106Z,3.33
2023-08-16T00:28:46.633Z,3.03
2023-08-16T00:30:54.987Z,2.97
2023-08-16T00:32:56.842Z,3.50
2023-08-16T00:34:58.576Z,2.92
2023-08-16T00:37:00.286Z,3.28
2023-08-16T00:39:01.969Z,3.70
2023-08-16T00:41:03.680Z,3.22
2023-08-16T00:43:05.429Z,2.50
2023-08-16T00:45:07.597Z,3.40
2023-08-16T00:47:09.322Z,2.95
2023-08-16T00:49:11.340Z,2.78
2023-08-16T00:51:13.254Z,2.35
2023-08-16T00:53:18.537Z,3.28
2023-08-16T00:55:20.381Z,2.40
2023-08-16T00:57:22.351Z,2.35
2023-08-16T00:59:24.442Z,2.70
2023-08-16T01:01:26.194Z,2.83
2023-08-16T01:03:28.091Z,2.80
2023-08-16T01:05:30.496Z,2.55
2023-08-16T01:07:32.167Z,2.95
2023-08-16T01:09:34.183Z,2.88
2023-08-16T01:11:55.392Z,2.63
2023-08-16T01:14:06.287Z,3.03
2023-08-16T01:16:09.180Z,2.58
2023-08-16T01:18:11.690Z,2.55
2023-08-16T01:20:13.968Z,2.95
2023-08-16T01:22:27.918Z,2.17
2023-08-16T01:24:38.679Z,2.60
2023-08-16T01:26:41.337Z,3.05
2023-08-16T01:28:44.409Z,2.80
2023-08-16T01:30:46.956Z,2.80
2023-08-16T01:32:52.362Z,3.83
2023-08-16T01:34:54.086Z,3.58
2023-08-16T01:36:55.811Z,3.30
2023-08-16T01:38:57.870Z,2.55
2023-08-16T01:41:04.014Z,2.70
2023-08-16T01:43:07.896Z,2.22
2023-08-16T01:45:10.400Z,2.45
2023-08-16T01:47:14.088Z,2.38
2023-08-16T01:49:15.859Z,2.45
2023-08-16T01:51:17.814Z,2.10
2023-08-16T01:53:19.727Z,1.95
2023-08-16T01:55:21.449Z,1.75
2023-08-16T01:57:23.362Z,2.22
2023-08-16T01:59:25.317Z,2.67
2023-08-16T02:01:27.127Z,2.60
2023-08-16T02:03:28.840Z,3.20
2023-08-16T02:05:30.642Z,2.72
2023-08-16T02:07:32.281Z,3.00
2023-08-16T02:09:34.022Z,3.40
2023-08-16T02:11:35.657Z,2.92
2023-08-16T02:13:37.364Z,3.35
2023-08-16T02:15:39.098Z,3.28
2023-08-16T02:17:40.914Z,3.10
2023-08-16T02:19:42.837Z,3.50
2023-08-16T02:21:44.564Z,3.10
2023-08-16T02:23:46.246Z,3.58
2023-08-16T02:25:47.860Z,3.17
2023-08-16T02:27:49.555Z,3.55
2023-08-16T02:29:52.996Z,3.40
2023-08-16T02:31:54.746Z,4.45
2023-08-16T02:33:56.543Z,8.38
2023-08-16T02:35:58.828Z,5.45
2023-08-16T02:38:00.636Z,7.50
2023-08-16T02:40:02.599Z,5.35
2023-08-16T02:42:04.417Z,9.95
2023-08-16T02:44:06.281Z,8.07
2023-08-16T02:46:08.132Z,8.32
2023-08-16T02:48:09.904Z,8.75
2023-08-16T02:50:11.602Z,9.38
2023-08-16T02:52:13.704Z,9.48
2023-08-16T02:54:16.023Z,9.13
2023-08-16T02:56:17.706Z,8.45
2023-08-16T02:58:19.373Z,7.07
2023-08-16T03:00:21.162Z,6.07
2023-08-16T03:02:23.194Z,9.23
2023-08-16T03:04:25.002Z,8.25
2023-08-16T03:06:26.812Z,8.05
2023-08-16T03:08:28.539Z,8.02
2023-08-16T03:10:30.249Z,8.45
2023-08-16T03:12:31.988Z,6.28
2023-08-16T03:14:33.775Z,6.70
2023-08-16T03:16:35.613Z,5.72
2023-08-16T03:18:37.708Z,5.75
2023-08-16T03:20:39.380Z,5.20
2023-08-16T03:22:41.039Z,4.15
2023-08-16T03:24:42.844Z,3.58
2023-08-16T03:26:44.597Z,3.45
2023-08-16T03:28:46.373Z,3.10
2023-08-16T03:30:48.114Z,2.85
2023-08-16T03:32:49.858Z,2.60
2023-08-16T03:34:51.683Z,3.60
2023-08-16T03:36:53.393Z,2.53
2023-08-16T03:38:55.164Z,3.53
2023-08-16T03:40:56.865Z,2.40
2023-08-16T03:42:58.590Z,3.30
2023-08-16T03:45:00.228Z,3.15
2023-08-16T03:47:02.238Z,2.55
2023-08-16T03:49:04.776Z,2.60
2023-08-16T03:51:06.819Z,3.15
2023-08-16T03:53:08.534Z,3.17
2023-08-16T03:55:13.479Z,3.25
2023-08-16T03:57:15.220Z,3.65
2023-08-16T03:59:16.899Z,3.40
2023-08-16T04:01:19.085Z,3.28
2023-08-16T04:03:21.681Z,3.75
2023-08-16T04:05:23.439Z,4.00
2023-08-16T04:07:25.485Z,4.10
2023-08-16T04:09:27.416Z,3.60
2023-08-16T04:11:29.065Z,3.60
2023-08-16T04:13:30.712Z,3.80
2023-08-16T04:15:32.482Z,3.30
2023-08-16T04:17:34.423Z,3.90
2023-08-16T04:19:36.250Z,4.25
2023-08-16T04:21:39.661Z,5.32
2023-08-16T04:23:41.342Z,4.95
2023-08-16T04:25:43.006Z,6.03
2023-08-16T04:27:44.674Z,4.22
2023-08-16T04:29:46.365Z,4.57
2023-08-16T04:31:50.767Z,4.55
2023-08-16T04:33:52.546Z,4.43
2023-08-16T04:35:55.422Z,4.50
2023-08-16T04:37:57.204Z,4.03
2023-08-16T04:40:02.067Z,4.63
2023-08-16T04:42:04.055Z,5.30
2023-08-16T04:44:06.302Z,4.38
2023-08-16T04:46:08.017Z,4.55
2023-08-16T04:48:10.126Z,6.65
2023-08-16T04:50:12.050Z,7.78
2023-08-16T04:52:13.756Z,7.13
2023-08-16T04:54:15.464Z,6.07
2023-08-16T04:56:17.157Z,7.45
2023-08-16T04:58:18.861Z,4.43
2023-08-16T05:00:21.410Z,4.68
2023-08-16T05:02:23.168Z,3.72
2023-08-16T05:04:24.821Z,3.47
2023-08-16T05:06:26.610Z,3.30
2023-08-16T05:08:28.267Z,3.70
2023-08-16T05:10:29.963Z,2.70
2023-08-16T05:12:31.675Z,3.20
2023-08-16T05:14:33.398Z,2.28
2023-08-16T05:16:35.083Z,2.45
2023-08-16T05:18:36.757Z,2.47
2023-08-16T05:20:38.932Z,2.28
2023-08-16T05:22:40.709Z,2.65
2023-08-16T05:24:42.440Z,3.28
2023-08-16T05:26:44.129Z,2.85
2023-08-16T05:28:45.967Z,3.70
2023-08-16T05:30:47.753Z,2.38
2023-08-16T05:32:49.468Z,3.10
2023-08-16T05:34:53.880Z,3.53
2023-08-16T05:36:56.238Z,3.30
2023-08-16T05:38:57.937Z,4.05
2023-08-16T05:41:00.260Z,5.25
2023-08-16T05:43:01.968Z,5.68
2023-08-16T05:45:03.936Z,6.28
2023-08-16T05:47:05.967Z,4.57
2023-08-16T05:49:07.777Z,5.30
2023-08-16T05:51:09.438Z,6.63
2023-08-16T05:53:11.255Z,6.70
2023-08-16T05:55:13.110Z,6.18
2023-08-16T05:57:14.989Z,7.15
2023-08-16T05:59:16.661Z,6.90
2023-08-16T06:01:18.335Z,6.60
2023-08-16T06:03:21.425Z,6.05
2023-08-16T06:05:23.142Z,6.07
2023-08-16T06:07:25.069Z,9.07
2023-08-16T06:09:26.957Z,10.48
2023-08-16T06:11:29.004Z,9.10
2023-08-16T06:13:30.666Z,9.43
2023-08-16T06:15:32.294Z,8.90
2023-08-16T06:17:34.071Z,8.70
2023-08-16T06:19:35.840Z,7.75
2023-08-16T06:21:38.078Z,9.45
2023-08-16T06:23:40.850Z,8.02
2023-08-16T06:25:42.581Z,7.60
2023-08-16T06:27:44.303Z,7.07
2023-08-16T06:29:45.970Z,7.65
2023-08-16T06:31:50.562Z,8.52
2023-08-16T06:33:52.743Z,7.88
2023-08-16T06:35:54.470Z,7.03
2023-08-16T06:37:56.893Z,7.15
2023-08-16T06:39:58.566Z,8.05
2023-08-16T06:42:01.988Z,6.88
2023-08-16T06:44:03.848Z,7.55
2023-08-16T06:46:06.131Z,5.82
2023-08-16T06:48:08.881Z,5.32
2023-08-16T06:50:10.805Z,5.35
2023-08-16T06:52:12.462Z,4.18
2023-08-16T06:54:14.206Z,5.30
2023-08-16T06:56:15.952Z,3.85
2023-08-16T06:58:18.063Z,4.50
2023-08-16T07:00:20.061Z,4.43
2023-08-16T07:02:22.378Z,4.05
2023-08-16T07:04:24.478Z,5.15
2023-08-16T07:06:27.637Z,4.97
2023-08-16T07:08:29.551Z,3.28
2023-08-16T07:10:31.202Z,4.70
2023-08-16T07:12:32.945Z,6.07
2023-08-16T07:14:34.604Z,5.47
2023-08-16T07:16:37.813Z,4.75
2023-08-16T07:18:39.555Z,4.57
2023-08-16T07:20:41.278Z,5.45
2023-08-16T07:22:43.087Z,4.82
2023-08-16T07:24:44.793Z,4.82
2023-08-16T07:26:46.481Z,4.97
2023-08-16T07:28:48.135Z,4.50
2023-08-16T07:30:53.408Z,4.90
2023-08-16T07:32:55.312Z,6.40
2023-08-16T07:34:57.034Z,5.43
2023-08-16T07:36:58.822Z,6.03
2023-08-16T07:39:00.632Z,8.10
2023-08-16T07:41:02.597Z,7.10
2023-08-16T07:43:04.442Z,7.47
2023-08-16T07:45:06.738Z,5.20
2023-08-16T07:47:08.429Z,7.95
2023-08-16T07:49:10.439Z,9.93
2023-08-16T07:51:12.097Z,10.93
2023-08-16T07:53:14.059Z,9.68
2023-08-16T07:55:15.831Z,10.43
2023-08-16T07:57:17.572Z,8.93
2023-08-16T07:59:19.405Z,9.43
2023-08-16T08:01:21.435Z,10.55
2023-08-16T08:03:23.747Z,10.68
2023-08-16T08:05:25.558Z,10.52
2023-08-16T08:07:27.324Z,12.88
2023-08-16T08:09:29.062Z,10.15
2023-08-16T08:11:30.967Z,11.27
2023-08-16T08:13:32.676Z,10.43
2023-08-16T08:15:34.343Z,9.48
2023-08-16T08:17:36.091Z,10.30
2023-08-16T08:19:37.803Z,9.10
2023-08-16T08:21:40.111Z,10.07
2023-08-16T08:23:43.785Z,9.43
2023-08-16T08:25:45.882Z,9.02
2023-08-16T08:27:47.541Z,9.25
2023-08-16T08:29:49.331Z,7.90
2023-08-16T08:31:51.170Z,7.78
2023-08-16T08:33:52.887Z,6.15
2023-08-16T08:35:54.622Z,7.00
2023-08-16T08:37:56.283Z,6.60
2023-08-16T08:39:57.972Z,7.03
2023-08-16T08:42:00.202Z,7.03
2023-08-16T08:44:03.121Z,6.25
2023-08-16T08:46:06.341Z,5.90
2023-08-16T08:48:08.238Z,6.13
2023-08-16T08:50:10.227Z,5.85
2023-08-16T08:52:13.079Z,5.43
2023-08-16T08:54:14.797Z,4.53
2023-08-16T08:56:18.333Z,5.70
2023-08-16T08:58:24.162Z,5.32
2023-08-16T09:00:28.318Z,4.70
2023-08-16T09:02:31.641Z,3.88
2023-08-16T09:04:34.832Z,4.53
2023-08-16T09:06:36.634Z,4.20
2023-08-16T09:08:38.720Z,3.85
2023-08-16T09:10:41.404Z,3.47
2023-08-16T09:12:43.322Z,3.58
2023-08-16T09:14:45.033Z,3.67
2023-08-16T09:16:46.675Z,3.55
2023-08-16T09:18:49.736Z,3.00
2023-08-16T09:20:53.244Z,3.05
2023-08-16T09:22:54.968Z,3.72
2023-08-16T09:24:59.230Z,2.55
2023-08-16T09:27:01.651Z,2.53
2023-08-16T09:29:04.470Z,2.38
2023-08-16T09:31:07.931Z,3.28
2023-08-16T09:33:13.824Z,2.22
2023-08-16T09:35:17.745Z,2.85
2023-08-16T09:37:20.796Z,2.17
2023-08-16T09:39:26.792Z,2.40
2023-08-16T09:41:28.868Z,2.42
2023-08-16T09:43:33.998Z,2.33
2023-08-16T09:45:36.272Z,2.83
2023-08-16T09:49:52.169Z,2.35
2023-08-16T09:53:59.018Z,2.80
2023-08-16T09:56:01.320Z,3.25
2023-08-16T09:58:03.645Z,2.60
2023-08-16T10:00:08.272Z,2.80
2023-08-16T10:02:14.634Z,3.08
2023-08-16T10:04:20.662Z,2.55
2023-08-16T10:08:31.768Z,2.42
2023-08-16T10:10:33.851Z,2.90
2023-08-16T10:12:36.357Z,2.55
2023-08-16T10:14:41.284Z,2.75
2023-08-16T10:16:44.216Z,2.70
2023-08-16T10:18:48.045Z,2.85
2023-08-16T10:20:51.029Z,2.25
2023-08-16T10:22:58.939Z,2.95
2023-08-16T10:25:05.550Z,2.60
2023-08-16T10:27:09.535Z,2.70
2023-08-16T10:31:20.808Z,2.38
2023-08-16T10:33:29.812Z,2.10
2023-08-16T10:35:33.004Z,2.30
2023-08-16T10:37:39.836Z,2.15
2023-08-16T10:40:11.840Z,3.00
2023-08-16T10:42:14.752Z,2.40
2023-08-16T10:44:24.346Z,2.10
2023-08-16T10:46:26.197Z,2.47
2023-08-16T10:48:36.469Z,2.38
2023-08-16T10:50:38.740Z,2.58
2023-08-16T10:52:43.197Z,2.47
2023-08-16T10:54:44.830Z,3.20
2023-08-16T10:56:51.277Z,2.20
2023-08-16T10:58:53.766Z,2.95
2023-08-16T11:00:58.332Z,2.35
2023-08-16T11:03:02.394Z,2.38
2023-08-16T11:05:05.278Z,2.88
2023-08-16T11:07:11.580Z,2.90
2023-08-16T11:09:14.531Z,2.92
2023-08-16T11:11:16.316Z,2.70
2023-08-16T11:13:18.730Z,2.60
2023-08-16T11:15:20.441Z,2.88
2023-08-16T11:17:22.120Z,3.45
2023-08-16T11:19:24.219Z,3.03
2023-08-16T11:21:27.107Z,3.40
2023-08-16T11:23:37.231Z,2.72
2023-08-16T11:25:41.041Z,3.25
2023-08-16T11:27:42.855Z,3.97
2023-08-16T11:29:56.489Z,3.35
2023-08-16T11:31:58.644Z,3.13
2023-08-16T11:34:00.611Z,3.55
2023-08-16T11:36:04.273Z,2.83
2023-08-16T11:38:06.301Z,3.80
2023-08-16T11:40:11.061Z,3.85
2023-08-16T11:42:12.790Z,3.50
2023-08-16T11:44:14.532Z,3.10
2023-08-16T11:46:16.234Z,2.92
2023-08-16T11:48:18.096Z,3.00
2023-08-16T11:50:20.739Z,3.72
2023-08-16T11:52:25.405Z,4.13
2023-08-16T11:54:27.118Z,2.95
2023-08-16T11:56:29.788Z,3.38
2023-08-16T11:58:44.449Z,3.30
2023-08-16T12:00:46.177Z,3.78
2023-08-16T12:02:47.950Z,3.10
2023-08-16T12:04:49.734Z,3.35
2023-08-16T12:06:51.546Z,3.15
2023-08-16T12:08:56.720Z,2.80
2023-08-16T12:10:58.590Z,3.10
2023-08-16T12:13:01.204Z,3.35
2023-08-16T12:15:02.994Z,3.28
2023-08-16T12:17:04.677Z,3.72
2023-08-16T12:19:06.463Z,3.70
2023-08-16T12:21:08.134Z,3.35
2023-08-16T12:23:10.365Z,2.92
2023-08-16T12:25:12.728Z,3.58
2023-08-16T12:27:14.513Z,3.30
2023-08-16T12:29:16.329Z,3.42
2023-08-16T12:31:18.087Z,3.50
2023-08-16T12:33:23.532Z,3.47
2023-08-16T12:35:25.901Z,3.83
2023-08-16T12:37:27.619Z,2.83
2023-08-16T12:39:31.218Z,2.75
2023-08-16T12:41:35.246Z,2.88
2023-08-16T12:43:40.767Z,2.83
2023-08-16T12:45:43.468Z,2.42
2023-08-16T12:47:45.200Z,3.13
2023-08-16T12:49:47.495Z,2.20
2023-08-16T12:51:49.412Z,3.20
2023-08-16T12:53:51.196Z,2.75
2023-08-16T12:55:52.860Z,2.60
2023-08-16T12:58:02.518Z,2.78
2023-08-16T13:02:15.037Z,2.63
2023-08-16T13:04:17.879Z,3.08
2023-08-16T13:06:31.060Z,2.72
2023-08-16T13:08:33.490Z,3.03
2023-08-16T13:10:55.773Z,2.35
2023-08-16T13:15:09.042Z,2.50
2023-08-16T13:17:24.347Z,2.47
2023-08-16T13:19:27.917Z,2.15
2023-08-16T13:24:04.028Z,2.53
2023-08-16T13:26:14.370Z,2.35
2023-08-16T13:28:22.285Z,2.15
2023-08-16T13:32:46.593Z,2.53
2023-08-16T13:37:00.662Z,2.40
2023-08-16T13:41:11.869Z,1.90
2023-08-16T13:43:18.997Z,1.65
2023-08-16T13:45:25.345Z,2.45
2023-08-16T13:47:27.199Z,1.63
2023-08-16T13:49:28.869Z,2.05
2023-08-16T13:51:30.677Z,2.00
2023-08-16T13:53:32.477Z,2.08
2023-08-16T13:55:34.474Z,1.73
2023-08-16T13:57:36.150Z,1.98
2023-08-16T13:59:40.331Z,2.20
2023-08-16T14:01:42.034Z,1.75
2023-08-16T14:03:43.747Z,2.20
2023-08-16T14:05:45.466Z,2.20
2023-08-16T14:07:47.910Z,1.58
2023-08-16T14:09:49.567Z,2.08
2023-08-16T14:11:51.320Z,1.75
2023-08-16T14:13:53.792Z,1.70
2023-08-16T14:16:02.168Z,2.00
2023-08-16T14:18:04.234Z,1.63
2023-08-16T14:20:08.826Z,1.90
2023-08-16T14:22:10.531Z,1.63
2023-08-16T14:24:12.326Z,1.50
2023-08-16T14:26:21.486Z,1.90
2023-08-16T14:28:24.922Z,1.60
2023-08-16T14:30:33.876Z,1.90
2023-08-16T14:32:35.461Z,2.13
2023-08-16T14:34:36.999Z,1.90
2023-08-16T14:36:38.562Z,1.98
2023-08-16T14:38:50.192Z,1.63
2023-08-16T14:40:55.938Z,1.58
2023-08-16T14:42:57.536Z,1.90
2023-08-16T14:44:59.145Z,2.00
2023-08-16T14:47:08.033Z,2.45
2023-08-16T14:49:13.428Z,2.67
2023-08-16T14:51:17.533Z,2.30
2023-08-16T14:53:19.279Z,2.28
2023-08-16T14:55:22.080Z,2.28
2023-08-16T14:57:23.812Z,2.13
2023-08-16T14:59:25.354Z,2.35
2023-08-16T15:01:27.022Z,1.90
2023-08-16T15:03:28.695Z,2.13
2023-08-16T15:05:30.302Z,2.10
2023-08-16T15:07:31.797Z,2.20
2023-08-16T15:09:33.293Z,2.25
2023-08-16T15:11:37.328Z,2.25
2023-08-16T15:13:38.820Z,1.90
2023-08-16T15:15:40.347Z,2.00
2023-08-16T15:17:42.195Z,2.45
2023-08-16T15:19:43.802Z,2.05
2023-08-16T15:21:47.854Z,2.50
2023-08-16T15:23:50.695Z,2.63
2023-08-16T15:25:52.406Z,2.88
2023-08-16T15:27:54.096Z,2.35
2023-08-16T15:29:55.986Z,2.83
2023-08-16T15:31:57.750Z,2.22
2023-08-16T15:33:59.446Z,2.45
2023-08-16T15:36:01.152Z,2.17
2023-08-16T15:38:07.775Z,2.33
2023-08-16T15:40:10.063Z,2.17
2023-08-16T15:42:11.806Z,2.30
2023-08-16T15:44:13.546Z,2.65
2023-08-16T15:46:15.454Z,2.15
2023-08-16T15:48:17.193Z,3.25
2023-08-16T15:50:18.902Z,2.20
2023-08-16T15:52:20.784Z,2.38
2023-08-16T15:54:22.459Z,2.20
2023-08-16T15:56:24.213Z,2.38
2023-08-16T15:58:27.357Z,2.53
2023-08-16T16:00:29.033Z,3.08
2023-08-16T16:02:30.755Z,2.28
2023-08-16T16:04:33.220Z,2.72
2023-08-16T16:06:34.869Z,2.35
2023-08-16T16:08:36.661Z,2.65
2023-08-16T16:10:38.330Z,2.28
2023-08-16T16:12:40.102Z,1.90
2023-08-16T16:14:41.817Z,2.30
2023-08-16T16:16:45.590Z,2.33
2023-08-16T16:18:47.305Z,2.42
2023-08-16T16:20:48.954Z,1.90
2023-08-16T16:22:54.827Z,2.55
2023-08-16T16:24:57.177Z,2.28
2023-08-16T16:26:58.844Z,2.42
2023-08-16T16:29:00.585Z,2.67
2023-08-16T16:31:02.921Z,2.60
2023-08-16T16:33:06.282Z,1.92
2023-08-16T16:35:08.331Z,2.00
2023-08-16T16:37:10.058Z,2.40
2023-08-16T16:39:11.778Z,1.90
2023-08-16T16:41:13.495Z,2.97
2023-08-16T16:43:15.175Z,3.17
2023-08-16T16:45:17.477Z,3.88
2023-08-16T16:47:19.772Z,2.97
2023-08-16T16:49:21.430Z,2.47
2023-08-16T16:51:25.033Z,2.45
2023-08-16T16:53:27.744Z,2.30
2023-08-16T16:55:29.485Z,2.15
2023-08-16T16:57:33.572Z,2.50
2023-08-16T16:59:35.530Z,2.22
2023-08-16T17:01:37.307Z,1.95
2023-08-16T17:03:40.494Z,2.95
2023-08-16T17:05:42.309Z,2.33
2023-08-16T17:07:43.987Z,2.25
2023-08-16T17:09:46.453Z,1.60
2023-08-16T17:11:48.117Z,1.50
2023-08-16T17:13:51.395Z,1.70
2023-08-16T17:15:53.122Z,1.48
2023-08-16T17:17:54.857Z,1.13
2023-08-16T17:19:57.218Z,1.10
2023-08-16T17:21:59.128Z,1.35
2023-08-16T17:24:00.789Z,1.27
2023-08-16T17:26:02.572Z,1.40
2023-08-16T17:28:04.815Z,1.20
2023-08-16T17:30:07.600Z,0.98
2023-08-16T17:32:09.277Z,1.48
2023-08-16T17:34:10.925Z,1.23
2023-08-16T17:36:14.201Z,1.50
2023-08-16T17:38:15.940Z,1.10
2023-08-16T17:40:17.659Z,1.00
2023-08-16T17:42:19.435Z,1.17
2023-08-16T17:44:21.081Z,0.80
2023-08-16T17:46:22.993Z,0.90
2023-08-16T17:48:24.695Z,0.80
2023-08-16T17:50:26.478Z,1.20
2023-08-16T17:52:28.210Z,1.00
2023-08-16T17:54:29.895Z,1.10
2023-08-16T17:56:32.037Z,1.20
2023-08-16T17:58:33.731Z,1.20
2023-08-16T18:00:37.909Z,1.10
2023-08-16T18:02:39.713Z,1.10
2023-08-16T18:04:41.792Z,0.77
2023-08-16T18:06:43.469Z,0.80
2023-08-16T18:08:46.161Z,0.88
2023-08-16T18:10:47.916Z,1.05
2023-08-16T18:12:49.667Z,0.80
2023-08-16T18:14:51.368Z,0.90
2023-08-16T18:16:53.050Z,1.13
2023-08-16T18:18:54.874Z,1.10
2023-08-16T18:20:56.629Z,0.77
2023-08-16T18:22:59.051Z,1.10
2023-08-16T18:25:00.865Z,0.80
2023-08-16T18:27:02.651Z,0.75
2023-08-16T18:29:04.495Z,1.40
2023-08-16T18:31:08.086Z,0.90
2023-08-16T18:33:10.229Z,0.93
2023-08-16T18:35:11.937Z,0.70
2023-08-16T18:37:13.650Z,0.88
2023-08-16T18:39:15.335Z,0.80
2023-08-16T18:41:17.057Z,0.93
2023-08-16T18:43:21.594Z,0.98
2023-08-16T18:45:23.279Z,0.95
2023-08-16T18:47:25.299Z,1.02
2023-08-16T18:49:28.828Z,1.00
2023-08-16T18:51:30.532Z,0.70
2023-08-16T18:53:32.165Z,0.90
2023-08-16T18:55:33.839Z,1.02
2023-08-16T18:57:35.522Z,0.95
2023-08-16T18:59:37.197Z,0.80
2023-08-16T19:01:38.867Z,0.85
2023-08-16T19:03:40.573Z,0.70
2023-08-16T19:05:44.987Z,0.90
2023-08-16T19:07:46.694Z,1.10
2023-08-16T19:09:49.189Z,1.30
2023-08-16T19:11:50.898Z,1.08
2023-08-16T19:13:52.631Z,1.50
2023-08-16T19:15:54.335Z,1.50
2023-08-16T19:17:56.123Z,2.05
2023-08-16T19:19:57.903Z,1.25
2023-08-16T19:21:59.635Z,1.83
2023-08-16T19:24:01.347Z,1.20
2023-08-16T19:26:03.080Z,1.50
2023-08-16T19:28:05.014Z,1.45
2023-08-16T19:30:07.609Z,1.50
2023-08-16T19:32:09.310Z,1.15
2023-08-16T19:34:11.035Z,1.20
2023-08-16T19:36:12.700Z,1.50
2023-08-16T19:38:14.578Z,1.50
2023-08-16T19:40:16.385Z,1.70
2023-08-16T19:42:18.108Z,1.63
2023-08-16T19:44:19.850Z,1.30
2023-08-16T19:46:25.771Z,1.80
2023-08-16T19:48:27.572Z,1.55
2023-08-16T19:50:32.118Z,1.75
2023-08-16T19:52:33.795Z,1.45
2023-08-16T19:54:35.453Z,1.40
2023-08-16T19:56:37.157Z,1.55
2023-08-16T19:58:38.834Z,2.28
2023-08-16T20:00:40.611Z,3.05
2023-08-16T20:02:42.916Z,2.45
2023-08-16T20:04:44.717Z,2.08
2023-08-16T20:06:46.364Z,1.80
2023-08-16T20:08:48.077Z,2.42
2023-08-16T20:10:49.867Z,1.95
2023-08-16T20:12:51.631Z,1.80
2023-08-16T20:14:58.163Z,2.20
2023-08-16T20:16:59.874Z,2.42
2023-08-16T20:19:01.682Z,1.90
2023-08-16T20:21:05.300Z,1.42
2023-08-16T20:23:08.633Z,2.45
2023-08-16T20:25:14.459Z,1.95
2023-08-16T20:27:16.339Z,2.20
2023-08-16T20:29:19.315Z,2.05
2023-08-16T20:31:21.105Z,1.40
2023-08-16T20:33:22.954Z,1.90
2023-08-16T20:35:24.607Z,1.52
2023-08-16T20:37:28.631Z,2.10
2023-08-16T20:39:30.349Z,1.70
2023-08-16T20:41:32.169Z,1.90
2023-08-16T20:43:33.833Z,1.65
2023-08-16T20:45:35.660Z,1.52
2023-08-16T20:47:38.181Z,1.60
2023-08-16T20:49:39.825Z,1.58
2023-08-16T20:51:42.375Z,2.80
2023-08-16T20:53:44.182Z,1.33
2023-08-16T20:55:45.976Z,1.35
2023-08-16T20:57:47.629Z,1.30
2023-08-16T20:59:50.308Z,1.55
2023-08-16T21:01:52.039Z,1.83
2023-08-16T21:03:53.902Z,2.15
2023-08-16T21:05:55.593Z,2.08
2023-08-16T21:07:57.298Z,1.73
2023-08-16T21:09:59.005Z,2.03
2023-08-16T21:12:00.731Z,2.22
2023-08-16T21:14:03.144Z,2.63
2023-08-16T21:16:04.942Z,2.20
2023-08-16T21:18:06.664Z,2.60
2023-08-16T21:20:08.926Z,1.83
2023-08-16T21:22:10.664Z,1.90
2023-08-16T21:24:12.769Z,2.08
2023-08-16T21:26:14.444Z,1.95
2023-08-16T21:28:16.141Z,1.90
2023-08-16T21:30:17.829Z,1.73
2023-08-16T21:32:19.519Z,2.00
2023-08-16T21:34:21.284Z,1.90
2023-08-16T21:36:22.928Z,2.38
2023-08-16T21:38:24.675Z,2.70
2023-08-16T21:40:26.488Z,3.20
2023-08-16T21:42:28.182Z,3.33
2023-08-16T21:44:29.920Z,4.25
2023-08-16T21:46:31.911Z,3.20
2023-08-16T21:48:33.667Z,2.80
2023-08-16T21:50:35.326Z,3.63
2023-08-16T21:52:37.215Z,3.13
2023-08-16T21:54:38.876Z,3.65
2023-08-16T21:56:41.460Z,3.60
2023-08-16T21:58:43.149Z,3.40
2023-08-16T22:00:45.823Z,3.42
2023-08-16T22:02:47.546Z,2.65
2023-08-16T22:04:50.066Z,4.10
2023-08-16T22:06:52.196Z,3.90
2023-08-16T22:08:53.852Z,4.43
2023-08-16T22:10:55.556Z,4.30
2023-08-16T22:12:57.212Z,2.33
2023-08-16T22:14:58.886Z,1.58
2023-08-16T22:17:00.672Z,1.90
2023-08-16T22:19:02.571Z,1.67
2023-08-16T22:21:05.685Z,1.95
2023-08-16T22:23:09.156Z,1.40
2023-08-16T22:25:11.319Z,2.20
2023-08-16T22:27:12.981Z,1.33
2023-08-16T22:29:15.027Z,2.05
2023-08-16T22:31:16.724Z,1.40
2023-08-16T22:33:18.528Z,1.58
2023-08-16T22:35:20.171Z,1.98
2023-08-16T22:37:21.853Z,2.00
2023-08-16T22:39:23.582Z,1.40
2023-08-16T22:41:25.253Z,1.75
2023-08-16T22:43:27.227Z,1.58
2023-08-16T22:45:28.892Z,1.70
2023-08-16T22:47:30.676Z,1.48
2023-08-16T22:49:32.370Z,1.48
2023-08-16T22:51:36.312Z,2.15
2023-08-16T22:53:37.997Z,1.58
2023-08-16T22:55:39.730Z,1.35
2023-08-16T22:57:41.500Z,1.02
2023-08-16T22:59:43.188Z,1.30
2023-08-16T23:01:44.956Z,1.55
2023-08-16T23:03:47.881Z,1.35
2023-08-16T23:05:49.575Z,1.50
2023-08-16T23:07:51.252Z,1.30
2023-08-16T23:09:52.960Z,1.30
2023-08-16T23:11:54.732Z,1.50
2023-08-16T23:13:56.448Z,1.20
2023-08-16T23:15:58.188Z,1.55
2023-08-16T23:17:59.937Z,1.63
2023-08-16T23:20:02.936Z,1.20
2023-08-16T23:22:04.716Z,1.48
2023-08-16T23:24:06.977Z,1.10
2023-08-16T23:26:08.669Z,1.50
2023-08-16T23:28:10.392Z,1.75
2023-08-16T23:30:12.652Z,1.73
2023-08-16T23:32:14.303Z,1.38
2023-08-16T23:34:16.009Z,1.35
2023-08-16T23:36:17.679Z,1.73
2023-08-16T23:38:19.479Z,1.77
2023-08-16T23:40:21.214Z,1.85
2023-08-16T23:42:25.935Z,2.10
2023-08-16T23:44:28.066Z,1.52
2023-08-16T23:46:29.833Z,1.98
2023-08-16T23:48:31.533Z,1.70
2023-08-16T23:50:33.346Z,1.77
2023-08-16T23:52:35.053Z,1.45
2023-08-16T23:54:37.740Z,0.98
2023-08-16T23:56:39.430Z,1.10
2023-08-16T23:58:41.172Z,1.83
